createdAt,value
2023-03-29T00:04:00.401Z,0
2023-03-29T00:09:17.429Z,0
2023-03-29T00:19:55.668Z,0
2023-03-29T00:25:14.620Z,0
2023-03-29T00:30:34.421Z,0
2023-03-29T00:35:53.342Z,0
2023-03-29T00:41:12.495Z,0
2023-03-29T00:46:31.853Z,0
2023-03-29T00:51:50.763Z,0
2023-03-29T00:57:10.254Z,0
2023-03-29T01:02:29.912Z,0
2023-03-29T01:07:49.455Z,0
2023-03-29T01:13:09.033Z,0
2023-03-29T01:18:28.611Z,0
2023-03-29T01:23:47.426Z,0
2023-03-29T01:29:07.035Z,0
2023-03-29T01:34:26.203Z,0
2023-03-29T01:39:45.655Z,0
2023-03-29T01:45:04.466Z,0
2023-03-29T01:55:43.164Z,0
2023-03-29T02:01:02.577Z,0
2023-03-29T02:11:40.364Z,0
2023-03-29T02:16:59.895Z,0
2023-03-29T02:22:19.303Z,0
2023-03-29T02:27:38.930Z,0
2023-03-29T02:32:58.772Z,0
2023-03-29T02:38:18.319Z,0
2023-03-29T02:43:37.378Z,0
2023-03-29T02:48:56.581Z,0
2023-03-29T02:54:15.812Z,0
2023-03-29T02:59:35.562Z,0
2023-03-29T03:04:54.940Z,0
2023-03-29T03:10:14.434Z,0
2023-03-29T03:15:33.168Z,0
2023-03-29T03:26:11.685Z,0
2023-03-29T03:31:31.196Z,0
2023-03-29T03:36:50.458Z,0
2023-03-29T03:42:09.446Z,0
2023-03-29T03:47:28.468Z,0
2023-03-29T03:52:47.857Z,0
2023-03-29T03:58:07.576Z,0
2023-03-29T04:03:26.376Z,0
2023-03-29T04:14:04.540Z,0
2023-03-29T04:19:23.566Z,0
2023-03-29T04:24:42.642Z,0
2023-03-29T04:30:01.969Z,0
2023-03-29T04:35:20.981Z,0
2023-03-29T04:40:40.023Z,0
2023-03-29T04:45:59.161Z,0
2023-03-29T05:01:57.472Z,23.05
2023-03-29T05:12:36.413Z,35.44
2023-03-29T05:17:55.451Z,38.2
2023-03-29T05:23:14.285Z,45.5
2023-03-29T05:28:33.365Z,50.9
2023-03-29T05:33:52.893Z,61.84
2023-03-29T05:44:31.800Z,82.39
2023-03-29T05:49:50.790Z,88.89
2023-03-29T05:55:09.783Z,88.04
2023-03-29T06:00:29.309Z,104.25
2023-03-29T06:05:49.614Z,119.79
2023-03-29T06:11:07.984Z,96.85
2023-03-29T06:16:26.610Z,104.94
2023-03-29T06:21:46.186Z,130.44
2023-03-29T06:27:14.467Z,128.39
2023-03-29T06:32:25.474Z,160.34
2023-03-29T06:37:44.772Z,171.59
2023-03-29T06:43:03.822Z,182.7
2023-03-29T06:48:22.835Z,218.89
2023-03-29T06:53:42.105Z,238.45
2023-03-29T06:59:01.843Z,230
2023-03-29T07:09:39.805Z,282.75
2023-03-29T07:14:58.519Z,334.09
2023-03-29T07:20:17.564Z,289.94
2023-03-29T07:25:37.100Z,309.44
2023-03-29T07:30:55.894Z,356.09
2023-03-29T07:36:15.261Z,327.59
2023-03-29T07:41:34.670Z,354.65
2023-03-29T07:52:12.856Z,320.75
2023-03-29T08:02:51.263Z,296.04
2023-03-29T08:08:10.642Z,397.34
2023-03-29T08:13:30.031Z,340.65
2023-03-29T08:18:48.949Z,328.79
2023-03-29T08:24:08.617Z,477.44
2023-03-29T08:29:27.901Z,464.25
2023-03-29T08:34:47.423Z,390.09
2023-03-29T08:40:06.956Z,406.5
2023-03-29T08:45:26.189Z,540.44
2023-03-29T08:50:45.195Z,567.84
2023-03-29T09:01:23.940Z,390.65
2023-03-29T09:06:42.657Z,430.5
2023-03-29T09:17:20.747Z,488.04
2023-03-29T09:22:40.383Z,509.65
2023-03-29T09:33:18.788Z,468.44
2023-03-29T09:38:37.873Z,450.79
2023-03-29T09:43:57.155Z,490.75
2023-03-29T09:49:17.390Z,485.25
2023-03-29T09:54:36.068Z,501.09
2023-03-29T09:59:55.620Z,449.44
2023-03-29T10:05:14.801Z,477.29
2023-03-29T10:10:34.809Z,528.59
2023-03-29T10:15:54.370Z,542.3
2023-03-29T10:26:33.261Z,445.9
2023-03-29T10:31:52.269Z,471.59
2023-03-29T10:42:30.632Z,537.04
2023-03-29T10:49:04.808Z,599.25
2023-03-29T10:53:21.416Z,45.08
2023-03-29T10:58:30.272Z,65.98
2023-03-29T11:03:49.250Z,602.44
2023-03-29T11:09:08.299Z,43.89
2023-03-29T11:14:27.485Z,215.14
2023-03-29T11:19:47.128Z,81.78
2023-03-29T11:25:06.016Z,224.19
2023-03-29T11:30:25.556Z,544.34
2023-03-29T11:35:44.888Z,551.14
2023-03-29T11:41:04.216Z,547.25
2023-03-29T11:51:41.755Z,139.78
2023-03-29T11:57:00.609Z,6.28
2023-03-29T12:02:20.045Z,611.84
2023-03-29T12:07:39.230Z,472.65
2023-03-29T12:12:57.444Z,436.54
2023-03-29T12:18:16.146Z,491.59
2023-03-29T12:23:35.256Z,531.29
2023-03-29T12:28:54.596Z,490.44
2023-03-29T12:34:13.957Z,628.39
2023-03-29T12:39:33.569Z,29.53
2023-03-29T12:50:11.983Z,112.48
2023-03-29T12:55:31.622Z,513.33
2023-03-29T13:00:51.182Z,604.65
2023-03-29T13:06:10.409Z,146.14
2023-03-29T13:11:29.219Z,59.53
2023-03-29T13:16:48.111Z,611.14
2023-03-29T13:22:07.073Z,555.69
2023-03-29T13:27:25.985Z,648.25
2023-03-29T13:32:45.229Z,298.98
2023-03-29T13:43:22.994Z,30.47
2023-03-29T13:48:41.891Z,488.48
2023-03-29T13:54:00.569Z,88.93
2023-03-29T13:59:19.667Z,572.75
2023-03-29T14:04:38.473Z,26.33
2023-03-29T14:09:58.070Z,548.65
2023-03-29T14:15:17.297Z,543.75
2023-03-29T14:20:36.161Z,580.8
2023-03-29T14:25:55.638Z,471.84
2023-03-29T14:26:21.640Z,472.65
2023-03-29T14:31:40.885Z,391.15
2023-03-29T14:37:00.203Z,437.15
2023-03-29T14:42:19.101Z,182.33
2023-03-29T14:47:37.976Z,127.39
2023-03-29T14:58:16.219Z,392.65
2023-03-29T15:03:36.003Z,524.19
2023-03-29T15:09:04.770Z,377.4
2023-03-29T15:14:13.578Z,649.75
2023-03-29T15:19:32.416Z,404.04
2023-03-29T15:24:51.585Z,315.19
2023-03-29T15:30:10.648Z,282.75
2023-03-29T15:35:30.458Z,265.2
2023-03-29T15:40:49.762Z,247.2
2023-03-29T15:46:09.090Z,224.54
2023-03-29T15:51:28.745Z,195.34
2023-03-29T15:56:48.266Z,161.39
2023-03-29T16:02:07.288Z,161.04
2023-03-29T16:07:26.761Z,144.85
2023-03-29T16:12:45.927Z,121.79
2023-03-29T16:18:04.816Z,125.25
2023-03-29T16:28:43.205Z,131.69
2023-03-29T16:34:02.372Z,126.04
2023-03-29T16:39:21.932Z,117.94
2023-03-29T16:44:41.615Z,78.05
2023-03-29T16:50:00.997Z,63.59
2023-03-29T16:55:20.378Z,68.94
2023-03-29T17:00:39.283Z,56.44
2023-03-29T17:11:18.178Z,48.25
2023-03-29T17:16:37.218Z,43.1
2023-03-29T17:21:55.848Z,37.09
2023-03-29T17:27:15.064Z,34.15
2023-03-29T17:32:34.526Z,26.2
2023-03-29T17:37:53.585Z,21
2023-03-29T17:43:12.783Z,11
2023-03-29T17:48:32.133Z,5
2023-03-29T17:53:52.331Z,1
2023-03-29T17:59:10.460Z,0
2023-03-29T18:04:29.466Z,0
2023-03-29T18:09:48.350Z,0
2023-03-29T18:15:07.188Z,0
2023-03-29T18:20:26.872Z,0
2023-03-29T18:25:45.912Z,0
2023-03-29T18:31:04.775Z,0
2023-03-29T18:36:24.362Z,0
2023-03-29T18:41:43.444Z,0
2023-03-29T18:47:02.714Z,0
2023-03-29T18:52:21.597Z,0
2023-03-29T18:57:41.210Z,0
2023-03-29T19:03:00.443Z,0
2023-03-29T19:08:19.592Z,0
2023-03-29T19:13:39.215Z,0
2023-03-29T19:18:58.695Z,0
2023-03-29T19:24:17.622Z,0
2023-03-29T19:29:36.495Z,0
2023-03-29T19:34:55.665Z,0
2023-03-29T19:45:33.492Z,0
2023-03-29T19:56:11.273Z,0
2023-03-29T20:01:30.899Z,0
2023-03-29T20:06:50.019Z,0
2023-03-29T20:12:08.797Z,0
2023-03-29T20:17:28.473Z,0
2023-03-29T20:22:48.125Z,0
2023-03-29T20:28:07.196Z,0
2023-03-29T20:33:26.333Z,0
2023-03-29T20:38:45.932Z,0
2023-03-29T20:44:05.202Z,0
2023-03-29T20:49:24.687Z,0
2023-03-29T20:54:43.592Z,0
2023-03-29T21:00:03.225Z,0
2023-03-29T21:05:22.742Z,0
2023-03-29T21:10:42.340Z,0
2023-03-29T21:21:21.079Z,0
2023-03-29T21:26:40.351Z,0
2023-03-29T21:31:59.937Z,0
2023-03-29T21:37:18.723Z,0
2023-03-29T21:42:37.834Z,0
2023-03-29T21:47:57.509Z,0
2023-03-29T21:53:16.401Z,0
2023-03-29T22:03:53.988Z,0
2023-03-29T22:09:13.683Z,0
2023-03-29T22:19:51.156Z,0
2023-03-29T22:25:10.501Z,0
2023-03-29T22:30:29.989Z,0
2023-03-29T22:35:49.277Z,0
2023-03-29T22:41:08.393Z,0
2023-03-29T22:46:27.353Z,0
2023-03-29T22:51:46.724Z,0
2023-03-29T22:57:06.161Z,0
2023-03-29T23:02:25.965Z,0
2023-03-29T23:07:45.267Z,0
2023-03-29T23:13:04.765Z,0
2023-03-29T23:18:24.437Z,0
2023-03-29T23:23:43.801Z,0
2023-03-29T23:29:02.708Z,0
2023-03-29T23:34:21.788Z,0
2023-03-29T23:39:40.480Z,0
2023-03-29T23:44:59.616Z,0
2023-03-29T23:50:18.896Z,0
2023-03-29T23:55:38.384Z,0
